createdAt,value
2018-05-23T00:01:20.955Z,17.20
2018-05-23T00:03:47.538Z,18.03
2018-05-23T00:06:14.130Z,18.73
2018-05-23T00:08:40.657Z,18.10
2018-05-23T00:11:07.994Z,18.77
2018-05-23T00:13:35.292Z,17.70
2018-05-23T00:16:01.949Z,17.17
2018-05-23T00:18:29.358Z,18.37
2018-05-23T00:20:55.979Z,20.37
2018-05-23T00:23:22.531Z,19.50
2018-05-23T00:25:49.866Z,16.33
2018-05-23T00:28:17.156Z,17.17
2018-05-23T00:30:43.931Z,15.77
2018-05-23T00:33:10.479Z,21.37
2018-05-23T00:35:37.069Z,21.80
2018-05-23T00:40:42.849Z,22.37
2018-05-23T00:43:09.281Z,21.53
2018-05-23T00:45:35.778Z,25.03
2018-05-23T00:48:02.372Z,23.83
2018-05-23T00:50:36.216Z,24.20
2018-05-23T00:53:11.665Z,26.33
2018-05-23T00:55:38.892Z,27.50
2018-05-23T00:58:05.307Z,26.23
2018-05-23T01:00:31.761Z,24.00
2018-05-23T01:02:58.273Z,26.73
2018-05-23T01:05:32.900Z,31.10
2018-05-23T01:07:59.435Z,29.70
2018-05-23T01:10:25.948Z,30.83
2018-05-23T01:12:53.156Z,31.73
2018-05-23T01:15:19.580Z,28.00
2018-05-23T01:17:46.879Z,31.40
2018-05-23T01:20:14.072Z,33.07
2018-05-23T01:22:40.559Z,36.50
2018-05-23T01:25:07.748Z,30.77
2018-05-23T01:27:34.284Z,28.17
2018-05-23T01:30:00.729Z,36.03
2018-05-23T01:32:27.156Z,30.87
2018-05-23T01:34:53.585Z,35.93
2018-05-23T01:37:20.044Z,31.90
2018-05-23T01:39:46.497Z,31.67
2018-05-23T01:42:13.982Z,38.08
2018-05-23T01:44:40.465Z,36.13
2018-05-23T01:47:06.939Z,35.40
2018-05-23T01:49:34.173Z,36.93
2018-05-23T01:52:00.626Z,33.57
2018-05-23T01:54:27.318Z,31.77
2018-05-23T01:56:53.834Z,32.97
2018-05-23T01:59:20.350Z,34.80
2018-05-23T02:01:46.843Z,29.33
2018-05-23T02:04:13.320Z,36.70
2018-05-23T02:06:40.531Z,32.50
2018-05-23T02:09:07.055Z,30.00
2018-05-23T02:11:33.568Z,37.47
2018-05-23T02:14:00.796Z,30.33
2018-05-23T02:16:27.325Z,28.57
2018-05-23T02:18:53.915Z,29.40
2018-05-23T02:21:20.390Z,28.93
2018-05-23T02:23:47.586Z,26.73
2018-05-23T02:26:14.034Z,31.23
2018-05-23T02:28:40.585Z,23.07
2018-05-23T02:31:07.029Z,31.00
2018-05-23T02:33:33.465Z,31.07
2018-05-23T02:35:59.916Z,29.80
2018-05-23T02:41:05.572Z,35.20
2018-05-23T02:43:32.135Z,28.00
2018-05-23T02:45:58.607Z,28.53
2018-05-23T02:48:25.109Z,39.90
2018-05-23T02:50:51.566Z,32.33
2018-05-23T02:53:18.039Z,35.83
2018-05-23T02:55:44.487Z,33.00
2018-05-23T02:58:10.892Z,31.47
2018-05-23T03:05:29.057Z,32.30
2018-05-23T03:07:55.699Z,40.50
2018-05-23T03:10:22.349Z,41.60
2018-05-23T03:12:48.922Z,37.17
2018-05-23T03:15:15.552Z,39.67
2018-05-23T03:17:42.111Z,50.07
2018-05-23T03:20:09.411Z,37.27
2018-05-23T03:22:35.960Z,49.93
2018-05-23T03:25:02.550Z,50.42
2018-05-23T03:27:29.077Z,53.10
2018-05-23T03:29:55.647Z,46.53
2018-05-23T03:32:22.163Z,46.37
2018-05-23T03:34:48.694Z,46.60
2018-05-23T03:37:15.210Z,57.20
2018-05-23T03:39:41.783Z,53.90
2018-05-23T03:42:08.311Z,60.13
2018-05-23T03:44:35.560Z,61.80
2018-05-23T03:47:02.077Z,64.70
2018-05-23T03:49:28.604Z,64.67
2018-05-23T03:51:55.113Z,68.60
2018-05-23T03:54:21.612Z,65.90
2018-05-23T03:56:48.862Z,66.57
2018-05-23T03:59:15.360Z,75.43
2018-05-23T04:02:05.755Z,68.93
2018-05-23T04:04:44.447Z,68.43
2018-05-23T04:07:23.670Z,69.60
2018-05-23T04:09:50.150Z,82.60
2018-05-23T04:12:16.674Z,73.23
2018-05-23T04:14:43.878Z,73.23
2018-05-23T04:17:10.335Z,78.93
2018-05-23T04:19:37.607Z,85.43
2018-05-23T04:22:04.092Z,82.40
2018-05-23T04:24:30.606Z,79.23
2018-05-23T04:26:57.087Z,88.07
2018-05-23T04:29:23.503Z,74.50
2018-05-23T04:31:51.016Z,83.97
2018-05-23T04:34:17.482Z,83.73
2018-05-23T04:37:11.807Z,90.57
2018-05-23T04:39:38.267Z,90.90
2018-05-23T04:42:04.774Z,91.93
2018-05-23T04:44:31.302Z,100.50
2018-05-23T04:46:58.047Z,88.30
2018-05-23T04:49:24.490Z,103.13
2018-05-23T04:51:51.629Z,89.73
2018-05-23T04:54:18.110Z,97.40
2018-05-23T04:56:44.539Z,88.57
2018-05-23T04:59:11.021Z,83.43
2018-05-23T05:01:37.493Z,88.77
2018-05-23T05:04:03.999Z,88.43
2018-05-23T05:06:30.510Z,83.40
2018-05-23T05:08:57.052Z,86.27
2018-05-23T05:11:24.513Z,100.63
2018-05-23T05:13:51.033Z,86.67
2018-05-23T05:16:18.227Z,87.87
2018-05-23T05:18:44.684Z,89.20
2018-05-23T05:21:11.221Z,106.23
2018-05-23T05:23:37.655Z,90.03
2018-05-23T05:26:04.127Z,93.70
2018-05-23T05:28:30.568Z,107.53
2018-05-23T05:30:57.079Z,89.97
2018-05-23T05:33:24.266Z,94.40
2018-05-23T05:35:50.753Z,88.83
2018-05-23T05:38:17.962Z,91.57
2018-05-23T05:40:44.406Z,96.00
2018-05-23T05:43:11.839Z,97.20
2018-05-23T05:48:09.951Z,103.93
2018-05-23T05:50:38.255Z,98.43
2018-05-23T05:53:04.772Z,116.63
2018-05-23T05:55:31.300Z,101.97
2018-05-23T05:57:58.460Z,89.53
2018-05-23T06:00:25.593Z,105.17
2018-05-23T06:02:52.099Z,90.27
2018-05-23T06:05:18.546Z,96.00
2018-05-23T06:07:44.954Z,92.63
2018-05-23T06:10:11.421Z,96.43
2018-05-23T06:12:37.843Z,90.17
2018-05-23T06:15:04.326Z,88.03
2018-05-23T06:17:30.739Z,87.97
2018-05-23T06:19:57.194Z,91.80
2018-05-23T06:22:23.706Z,91.10
2018-05-23T06:24:50.037Z,94.80
2018-05-23T06:27:16.526Z,90.63
2018-05-23T06:29:42.997Z,98.97
2018-05-23T06:32:09.471Z,104.57
2018-05-23T06:34:35.941Z,95.27
2018-05-23T06:37:03.163Z,84.17
2018-05-23T06:39:30.380Z,92.33
2018-05-23T06:41:58.600Z,88.43
2018-05-23T06:44:25.040Z,80.87
2018-05-23T06:46:51.459Z,62.50
2018-05-23T06:49:17.952Z,60.07
2018-05-23T06:54:10.460Z,53.07
2018-05-23T06:56:36.961Z,48.33
2018-05-23T06:59:03.390Z,49.37
2018-05-23T07:01:29.976Z,43.50
2018-05-23T07:03:56.602Z,47.17
2018-05-23T07:10:25.353Z,49.07
2018-05-23T07:12:51.953Z,44.70
2018-05-23T07:15:34.170Z,45.57
2018-05-23T07:18:00.791Z,44.13
2018-05-23T07:20:50.757Z,42.00
2018-05-23T07:23:18.077Z,39.53
2018-05-23T07:26:15.920Z,39.80
2018-05-23T07:28:42.452Z,41.87
2018-05-23T07:31:08.975Z,45.27
2018-05-23T07:33:35.526Z,45.27
2018-05-23T07:36:19.697Z,45.77
2018-05-23T07:38:46.273Z,47.27
2018-05-23T07:41:14.515Z,45.93
2018-05-23T07:43:41.047Z,43.87
2018-05-23T07:46:07.605Z,45.30
2018-05-23T07:48:34.141Z,47.10
2018-05-23T07:51:00.661Z,48.57
2018-05-23T07:53:27.171Z,47.90
2018-05-23T07:55:53.686Z,51.57
2018-05-23T07:58:20.230Z,52.83
2018-05-23T08:03:12.908Z,50.53
2018-05-23T08:05:39.398Z,42.73
2018-05-23T08:08:05.839Z,48.27
2018-05-23T08:10:32.328Z,53.80
2018-05-23T08:12:58.746Z,54.63
2018-05-23T08:15:25.206Z,52.40
2018-05-23T08:17:51.636Z,47.70
2018-05-23T08:20:18.819Z,41.87
2018-05-23T08:22:45.263Z,39.60
2018-05-23T08:25:11.674Z,40.37
2018-05-23T08:27:38.081Z,31.30
2018-05-23T08:30:04.524Z,29.80
2018-05-23T08:32:30.947Z,24.57
2018-05-23T08:34:58.158Z,27.37
2018-05-23T08:37:24.613Z,25.73
2018-05-23T08:39:51.028Z,27.37
2018-05-23T08:42:17.435Z,21.97
2018-05-23T08:44:43.975Z,20.90
2018-05-23T08:47:10.590Z,27.30
2018-05-23T08:49:37.071Z,21.53
2018-05-23T08:52:03.508Z,25.23
2018-05-23T08:54:30.315Z,24.90
2018-05-23T08:57:33.317Z,27.20
2018-05-23T08:59:59.895Z,22.87
2018-05-23T09:02:26.415Z,23.13
2018-05-23T09:04:53.631Z,23.20
2018-05-23T09:07:20.082Z,24.57
2018-05-23T09:09:46.529Z,27.87
2018-05-23T09:12:13.100Z,29.47
2018-05-23T09:14:39.527Z,27.63
2018-05-23T09:17:06.706Z,26.80
2018-05-23T09:19:33.172Z,25.67
2018-05-23T09:21:59.603Z,25.17
2018-05-23T09:24:26.835Z,24.40
2018-05-23T09:26:53.274Z,26.17
2018-05-23T09:29:19.707Z,23.77
2018-05-23T09:31:46.156Z,23.03
2018-05-23T09:34:12.620Z,26.33
2018-05-23T09:36:39.789Z,26.20
2018-05-23T09:39:06.297Z,25.93
2018-05-23T09:41:32.740Z,25.57
2018-05-23T09:43:59.905Z,27.87
2018-05-23T09:46:26.363Z,27.20
2018-05-23T09:48:52.833Z,28.87
2018-05-23T09:51:19.293Z,28.20
2018-05-23T09:53:45.745Z,30.73
2018-05-23T09:56:13.191Z,29.47
2018-05-23T09:58:40.362Z,29.37
2018-05-23T10:01:06.815Z,31.87
2018-05-23T10:03:33.240Z,30.00
2018-05-23T10:05:59.738Z,32.17
2018-05-23T10:08:26.190Z,32.40
2018-05-23T10:10:53.408Z,30.83
2018-05-23T10:13:19.812Z,34.60
2018-05-23T10:15:46.214Z,29.58
2018-05-23T10:18:13.399Z,29.03
2018-05-23T10:20:39.862Z,30.27
2018-05-23T10:23:06.271Z,27.15
2018-05-23T10:25:32.748Z,27.60
2018-05-23T10:27:59.129Z,27.52
2018-05-23T10:30:25.599Z,27.77
2018-05-23T10:32:52.017Z,26.60
2018-05-23T10:35:18.453Z,23.87
2018-05-23T10:37:44.902Z,24.80
2018-05-23T10:40:11.335Z,23.70
2018-05-23T10:42:38.598Z,23.77
2018-05-23T10:45:05.789Z,23.20
2018-05-23T10:47:32.300Z,23.77
2018-05-23T10:49:58.768Z,23.87
2018-05-23T10:52:25.173Z,24.85
2018-05-23T10:54:52.349Z,20.98
2018-05-23T10:57:18.808Z,23.02
2018-05-23T10:59:45.243Z,23.70
2018-05-23T11:02:11.714Z,21.73
2018-05-23T11:04:38.190Z,22.73
2018-05-23T11:07:04.676Z,23.08
2018-05-23T11:09:31.478Z,23.67
2018-05-23T11:11:59.799Z,23.33
2018-05-23T11:14:26.267Z,24.02
2018-05-23T11:16:52.761Z,24.33
2018-05-23T11:19:19.272Z,23.98
2018-05-23T11:21:45.896Z,25.50
2018-05-23T11:24:13.127Z,23.45
2018-05-23T11:26:39.608Z,23.67
2018-05-23T11:29:06.091Z,22.90
2018-05-23T11:31:32.612Z,24.67
2018-05-23T11:33:59.066Z,22.42
2018-05-23T11:36:25.513Z,23.87
2018-05-23T11:38:51.998Z,23.65
2018-05-23T11:41:18.477Z,23.08
2018-05-23T11:43:45.654Z,21.67
2018-05-23T11:46:12.129Z,23.98
2018-05-23T11:48:38.688Z,23.40
2018-05-23T11:51:05.203Z,21.98
2018-05-23T11:53:31.663Z,20.60
2018-05-23T11:55:58.144Z,19.70
2018-05-23T11:58:24.654Z,18.58
2018-05-23T12:00:51.880Z,16.52
2018-05-23T12:03:19.083Z,20.48
2018-05-23T12:05:45.714Z,19.20
2018-05-23T12:08:12.163Z,21.33
2018-05-23T12:10:38.825Z,25.12
2018-05-23T12:13:05.432Z,21.15
2018-05-23T12:15:32.044Z,24.05
2018-05-23T12:17:59.326Z,25.65
2018-05-23T12:20:25.845Z,25.55
2018-05-23T12:22:52.348Z,23.55
2018-05-23T12:25:19.900Z,25.48
2018-05-23T12:27:46.433Z,24.00
2018-05-23T12:30:12.861Z,25.25
2018-05-23T12:32:39.415Z,24.55
2018-05-23T12:37:31.409Z,28.45
2018-05-23T12:39:59.085Z,25.62
2018-05-23T12:42:25.657Z,24.48
2018-05-23T12:44:52.199Z,24.48
2018-05-23T12:47:18.717Z,25.00
2018-05-23T12:49:45.258Z,24.98
2018-05-23T12:52:13.688Z,23.92
2018-05-23T12:54:40.270Z,22.17
2018-05-23T12:57:06.774Z,21.23
2018-05-23T12:59:34.072Z,21.65
2018-05-23T13:02:00.614Z,21.15
2018-05-23T13:04:28.007Z,22.48
2018-05-23T13:06:54.615Z,22.40
2018-05-23T13:09:21.119Z,21.35
2018-05-23T13:11:48.446Z,20.88
2018-05-23T13:14:15.004Z,21.98
2018-05-23T13:16:41.539Z,20.95
2018-05-23T13:19:08.083Z,20.92
2018-05-23T13:21:34.599Z,22.95
2018-05-23T13:24:01.189Z,21.83
2018-05-23T13:26:28.458Z,21.85
2018-05-23T13:28:55.045Z,19.98
2018-05-23T13:31:21.577Z,21.55
2018-05-23T13:33:48.120Z,20.30
2018-05-23T13:36:14.658Z,19.20
2018-05-23T13:38:41.193Z,18.08
2018-05-23T13:41:07.775Z,22.30
2018-05-23T13:43:34.334Z,20.05
2018-05-23T13:46:01.564Z,19.58
2018-05-23T13:48:28.036Z,17.05
2018-05-23T13:50:54.531Z,16.23
2018-05-23T13:53:22.783Z,18.75
2018-05-23T13:55:49.379Z,19.17
2018-05-23T13:58:16.181Z,18.45
2018-05-23T14:01:03.831Z,19.30
2018-05-23T14:03:30.369Z,18.95
2018-05-23T14:05:56.822Z,19.08
2018-05-23T14:08:23.375Z,21.30
2018-05-23T14:10:49.846Z,20.20
2018-05-23T14:13:16.335Z,19.37
2018-05-23T14:15:42.839Z,20.80
2018-05-23T14:18:09.377Z,21.08
2018-05-23T14:20:35.863Z,23.27
2018-05-23T14:23:02.402Z,23.73
2018-05-23T14:25:29.628Z,26.35
2018-05-23T14:27:56.112Z,26.75
2018-05-23T14:30:22.622Z,28.42
2018-05-23T14:32:49.883Z,27.85
2018-05-23T14:35:16.542Z,28.30
2018-05-23T14:37:43.154Z,29.40
2018-05-23T14:40:13.437Z,27.98
2018-05-23T14:42:41.850Z,27.27
2018-05-23T14:45:09.252Z,25.92
2018-05-23T14:47:35.749Z,27.73
2018-05-23T14:50:03.172Z,30.33
2018-05-23T14:52:29.664Z,29.98
2018-05-23T14:54:56.273Z,27.20
2018-05-23T14:57:23.520Z,26.48
2018-05-23T14:59:50.889Z,26.20
2018-05-23T15:02:17.380Z,27.52
2018-05-23T15:04:43.930Z,27.45
2018-05-23T15:07:10.477Z,42.62
2018-05-23T15:09:37.091Z,27.13
2018-05-23T15:12:03.720Z,21.92
2018-05-23T15:14:31.107Z,22.62
2018-05-23T15:16:57.647Z,21.30
2018-05-23T15:19:24.958Z,21.17
2018-05-23T15:21:51.492Z,21.73
2018-05-23T15:24:18.070Z,22.33
2018-05-23T15:26:44.598Z,19.20
2018-05-23T15:29:11.945Z,18.15
2018-05-23T15:31:38.467Z,19.10
2018-05-23T15:34:06.064Z,19.02
2018-05-23T15:36:32.636Z,27.20
2018-05-23T15:38:59.232Z,19.10
2018-05-23T15:41:25.786Z,18.52
2018-05-23T15:43:53.401Z,17.90
2018-05-23T15:46:19.899Z,17.87
2018-05-23T15:48:47.498Z,18.02
2018-05-23T15:53:47.989Z,20.08
2018-05-23T15:56:16.589Z,18.17
2018-05-23T15:58:43.084Z,19.55
2018-05-23T16:01:11.267Z,19.77
2018-05-23T16:03:38.607Z,19.48
2018-05-23T16:06:07.405Z,18.12
2018-05-23T16:08:33.919Z,19.15
2018-05-23T16:11:01.158Z,20.27
2018-05-23T16:13:27.606Z,22.67
2018-05-23T16:15:54.875Z,25.62
2018-05-23T16:18:22.055Z,22.10
2018-05-23T16:20:48.532Z,24.00
2018-05-23T16:23:15.188Z,23.02
2018-05-23T16:25:41.675Z,23.70
2018-05-23T16:28:08.227Z,20.62
2018-05-23T16:30:34.690Z,20.17
2018-05-23T16:33:01.337Z,20.50
2018-05-23T16:35:27.924Z,21.12
2018-05-23T16:37:54.475Z,21.80
2018-05-23T16:40:20.865Z,22.62
2018-05-23T16:42:47.342Z,19.65
2018-05-23T16:45:13.770Z,17.33
2018-05-23T16:47:40.426Z,19.33
2018-05-23T16:50:07.621Z,18.92
2018-05-23T16:52:34.073Z,17.58
2018-05-23T16:55:00.638Z,15.90
2018-05-23T16:57:27.072Z,14.52
2018-05-23T16:59:53.677Z,15.27
2018-05-23T17:02:20.101Z,17.98
2018-05-23T17:04:46.747Z,15.45
2018-05-23T17:07:13.218Z,14.85
2018-05-23T17:12:05.919Z,15.30
2018-05-23T17:14:32.383Z,16.33
2018-05-23T17:17:00.841Z,13.52
2018-05-23T17:19:27.277Z,14.25
2018-05-23T17:21:54.876Z,13.38
2018-05-23T17:24:22.055Z,13.45
2018-05-23T17:26:48.659Z,14.85
2018-05-23T17:29:15.125Z,15.13
2018-05-23T17:31:42.292Z,16.45
2018-05-23T17:34:09.236Z,16.58
2018-05-23T17:36:35.889Z,17.58
2018-05-23T17:39:02.373Z,22.33
2018-05-23T17:41:29.588Z,19.75
2018-05-23T17:43:56.088Z,20.37
2018-05-23T17:46:23.232Z,22.17
2018-05-23T17:48:49.659Z,22.05
2018-05-23T17:51:16.105Z,22.05
2018-05-23T17:53:42.559Z,24.10
2018-05-23T17:56:09.020Z,23.85
2018-05-23T17:58:35.471Z,22.92
2018-05-23T18:01:01.931Z,24.73
2018-05-23T18:03:28.355Z,23.55
2018-05-23T18:05:55.609Z,22.37
2018-05-23T18:08:21.972Z,25.25
2018-05-23T18:10:48.404Z,24.12
2018-05-23T18:13:14.836Z,25.77
2018-05-23T18:15:41.315Z,25.60
2018-05-23T18:18:07.790Z,25.77
2018-05-23T18:20:34.465Z,27.10
2018-05-23T18:23:00.920Z,29.37
2018-05-23T18:25:27.383Z,31.65
2018-05-23T18:27:54.641Z,32.83
2018-05-23T18:30:21.849Z,30.73
2018-05-23T18:32:48.261Z,34.72
2018-05-23T18:35:14.743Z,35.53
2018-05-23T18:37:41.995Z,37.28
2018-05-23T18:40:08.516Z,38.60
2018-05-23T18:42:35.776Z,43.30
2018-05-23T18:45:02.231Z,53.45
2018-05-23T18:47:28.875Z,57.58
2018-05-23T18:49:56.031Z,49.30
2018-05-23T18:52:31.326Z,47.80
2018-05-23T18:54:57.792Z,52.13
2018-05-23T18:57:25.046Z,42.70
2018-05-23T18:59:51.626Z,46.00
2018-05-23T19:02:22.045Z,45.20
2018-05-23T19:04:48.502Z,51.97
2018-05-23T19:07:14.979Z,67.65
2018-05-23T19:09:41.474Z,53.58
2018-05-23T19:12:08.078Z,38.25
2018-05-23T19:14:34.554Z,29.83
2018-05-23T19:17:01.101Z,30.92
2018-05-23T19:19:27.714Z,32.30
2018-05-23T19:21:54.952Z,36.25
2018-05-23T19:24:21.417Z,38.63
2018-05-23T19:26:47.841Z,44.40
2018-05-23T19:29:14.318Z,50.47
2018-05-23T19:31:41.509Z,51.23
2018-05-23T19:34:08.115Z,55.77
2018-05-23T19:36:34.868Z,54.80
2018-05-23T19:39:01.334Z,51.23
2018-05-23T19:41:27.757Z,55.97
2018-05-23T19:43:54.196Z,55.13
2018-05-23T19:46:20.635Z,65.93
2018-05-23T19:48:47.984Z,60.17
2018-05-23T19:51:14.389Z,60.40
2018-05-23T19:53:40.850Z,58.43
2018-05-23T19:58:54.055Z,68.37
2018-05-23T20:01:20.525Z,65.60
2018-05-23T20:03:56.207Z,66.70
2018-05-23T20:06:22.640Z,70.10
2018-05-23T20:08:51.951Z,75.23
2018-05-23T20:11:19.135Z,93.80
2018-05-23T20:13:45.690Z,77.93
2018-05-23T20:16:12.085Z,80.33
2018-05-23T20:18:39.777Z,66.37
2018-05-23T20:21:06.519Z,74.83
2018-05-23T20:23:32.977Z,83.57
2018-05-23T20:26:00.181Z,103.00
2018-05-23T20:28:26.613Z,80.73
2018-05-23T20:30:53.036Z,76.80
2018-05-23T20:33:20.217Z,65.80
2018-05-23T20:35:46.624Z,71.23
2018-05-23T20:38:13.038Z,74.67
2018-05-23T20:40:39.472Z,69.03
2018-05-23T20:43:05.882Z,71.43
2018-05-23T20:45:32.326Z,76.17
2018-05-23T20:47:58.798Z,76.13
2018-05-23T20:50:25.255Z,78.07
2018-05-23T20:52:51.971Z,77.50
2018-05-23T20:55:18.362Z,73.73
2018-05-23T20:57:44.751Z,79.47
2018-05-23T21:00:23.289Z,78.53
2018-05-23T21:02:50.326Z,80.43
2018-05-23T21:05:26.750Z,79.27
2018-05-23T21:07:53.180Z,82.97
2018-05-23T21:10:19.644Z,80.90
2018-05-23T21:12:46.079Z,86.47
2018-05-23T21:15:12.598Z,81.87
2018-05-23T21:17:39.011Z,84.57
2018-05-23T21:20:05.435Z,89.47
2018-05-23T21:22:31.869Z,84.83
2018-05-23T21:24:58.383Z,86.40
2018-05-23T21:27:24.797Z,85.07
2018-05-23T21:29:51.952Z,86.77
2018-05-23T21:32:19.114Z,82.93
2018-05-23T21:34:45.523Z,83.37
2018-05-23T21:37:12.705Z,79.20
2018-05-23T21:39:39.079Z,83.07
2018-05-23T21:42:06.284Z,74.57
2018-05-23T21:44:32.695Z,80.93
2018-05-23T21:46:59.872Z,73.30
2018-05-23T21:49:26.321Z,68.27
2018-05-23T21:51:52.756Z,68.07
2018-05-23T21:54:19.184Z,68.47
2018-05-23T21:56:45.628Z,72.20
2018-05-23T21:59:12.087Z,74.73
2018-05-23T22:01:38.483Z,70.37
2018-05-23T22:04:04.886Z,62.57
2018-05-23T22:06:31.322Z,51.63
2018-05-23T22:08:57.754Z,46.33
2018-05-23T22:11:24.123Z,28.67
2018-05-23T22:13:53.832Z,24.40
2018-05-23T22:18:45.712Z,17.23
2018-05-23T22:21:12.123Z,21.23
2018-05-23T22:23:38.604Z,32.23
2018-05-23T22:26:05.104Z,44.80
2018-05-23T22:28:31.610Z,49.13
2018-05-23T22:30:58.043Z,53.30
2018-05-23T22:33:24.494Z,53.23
2018-05-23T22:35:50.927Z,49.93
2018-05-23T22:38:17.321Z,48.53
2018-05-23T22:40:44.504Z,51.47
2018-05-23T22:43:10.960Z,51.70
2018-05-23T22:45:37.382Z,54.53
2018-05-23T22:48:03.823Z,43.07
2018-05-23T22:50:30.256Z,37.87
2018-05-23T22:52:56.692Z,24.53
2018-05-23T22:55:23.110Z,20.20
2018-05-23T22:57:49.501Z,15.40
2018-05-23T23:00:20.700Z,16.70
2018-05-23T23:02:47.130Z,15.77
2018-05-23T23:05:14.338Z,17.70
2018-05-23T23:07:40.759Z,18.83
2018-05-23T23:10:07.927Z,21.27
2018-05-23T23:12:34.358Z,23.60
2018-05-23T23:15:00.783Z,22.87
2018-05-23T23:17:27.249Z,22.40
2018-05-23T23:20:11.303Z,22.83
2018-05-23T23:22:38.675Z,26.73
2018-05-23T23:25:05.992Z,30.37
2018-05-23T23:27:32.566Z,29.77
2018-05-23T23:29:59.850Z,30.67
2018-05-23T23:32:26.379Z,34.07
2018-05-23T23:34:52.936Z,39.37
2018-05-23T23:37:19.466Z,44.00
2018-05-23T23:39:46.037Z,55.93
2018-05-23T23:42:13.281Z,63.57
2018-05-23T23:44:39.867Z,70.27
2018-05-23T23:47:06.386Z,66.00
2018-05-23T23:49:47.933Z,77.97
2018-05-23T23:52:14.450Z,82.67
2018-05-23T23:54:41.034Z,84.00
2018-05-23T23:57:07.488Z,82.07
2018-05-23T23:59:34.076Z,86.60
